createdAt,value
2018-11-27T00:00:46.215Z,57.57
2018-11-27T00:03:16.953Z,60.73
2018-11-27T00:05:47.586Z,67.03
2018-11-27T00:09:12.848Z,56.37
2018-11-27T00:11:43.584Z,46.93
2018-11-27T00:14:14.302Z,43.60
2018-11-27T00:16:47.753Z,44.20
2018-11-27T00:19:19.607Z,44.27
2018-11-27T00:21:57.768Z,44.43
2018-11-27T00:24:38.604Z,53.30
2018-11-27T00:27:31.226Z,57.90
2018-11-27T00:30:09.940Z,49.50
2018-11-27T00:32:41.020Z,48.40
2018-11-27T00:35:12.838Z,65.27
2018-11-27T00:37:44.351Z,55.40
2018-11-27T00:40:18.631Z,51.87
2018-11-27T00:42:49.298Z,53.67
2018-11-27T00:45:20.988Z,43.60
2018-11-27T00:47:52.382Z,40.40
2018-11-27T00:50:35.066Z,44.93
2018-11-27T00:53:08.085Z,51.57
2018-11-27T00:55:40.434Z,50.17
2018-11-27T00:58:16.531Z,49.50
2018-11-27T01:00:47.642Z,44.73
2018-11-27T01:03:18.270Z,48.57
2018-11-27T01:05:48.916Z,45.30
2018-11-27T01:08:19.614Z,43.60
2018-11-27T01:10:50.330Z,48.33
2018-11-27T01:13:21.634Z,51.27
2018-11-27T01:15:52.548Z,54.87
2018-11-27T01:18:23.151Z,48.23
2018-11-27T01:20:54.615Z,50.53
2018-11-27T01:23:25.218Z,58.53
2018-11-27T01:25:55.884Z,49.27
2018-11-27T01:28:26.537Z,43.47
2018-11-27T01:30:57.248Z,39.50
2018-11-27T01:33:27.881Z,43.80
2018-11-27T01:35:58.540Z,47.23
2018-11-27T01:38:29.170Z,43.17
2018-11-27T01:40:59.946Z,43.17
2018-11-27T01:43:31.255Z,43.63
2018-11-27T01:46:03.415Z,41.00
2018-11-27T01:48:34.036Z,38.77
2018-11-27T01:51:05.908Z,36.20
2018-11-27T01:53:36.554Z,35.93
2018-11-27T01:56:07.596Z,41.93
2018-11-27T01:58:38.244Z,38.90
2018-11-27T02:01:08.911Z,43.07
2018-11-27T02:03:39.631Z,52.07
2018-11-27T02:06:10.290Z,45.47
2018-11-27T02:08:40.996Z,49.30
2018-11-27T02:11:11.618Z,55.40
2018-11-27T02:13:42.350Z,49.53
2018-11-27T02:16:12.991Z,51.53
2018-11-27T02:18:44.019Z,48.17
2018-11-27T02:21:14.763Z,53.63
2018-11-27T02:23:45.867Z,43.37
2018-11-27T02:26:16.624Z,51.00
2018-11-27T02:28:47.278Z,51.67
2018-11-27T02:31:17.876Z,47.13
2018-11-27T02:33:48.723Z,50.93
2018-11-27T02:36:19.433Z,47.27
2018-11-27T02:38:50.046Z,45.27
2018-11-27T02:41:21.270Z,46.77
2018-11-27T02:43:51.875Z,40.03
2018-11-27T02:46:23.204Z,40.43
2018-11-27T02:48:53.890Z,39.03
2018-11-27T02:51:24.544Z,40.57
2018-11-27T02:53:55.268Z,40.53
2018-11-27T02:56:25.985Z,46.10
2018-11-27T02:58:56.610Z,45.43
2018-11-27T03:01:27.665Z,41.73
2018-11-27T03:03:58.496Z,41.07
2018-11-27T03:06:29.152Z,43.40
2018-11-27T03:08:59.817Z,44.10
2018-11-27T03:11:30.547Z,47.27
2018-11-27T03:14:05.327Z,41.60
2018-11-27T03:16:36.021Z,52.47
2018-11-27T03:19:08.733Z,45.80
2018-11-27T03:21:39.376Z,41.47
2018-11-27T03:24:10.015Z,37.43
2018-11-27T03:26:40.611Z,41.37
2018-11-27T03:29:13.058Z,43.93
2018-11-27T03:31:43.684Z,45.53
2018-11-27T03:34:14.372Z,49.00
2018-11-27T03:36:44.997Z,45.47
2018-11-27T03:39:15.739Z,47.67
2018-11-27T03:41:46.415Z,42.67
2018-11-27T03:44:17.071Z,49.97
2018-11-27T03:46:47.766Z,50.97
2018-11-27T03:49:18.422Z,48.33
2018-11-27T03:51:59.808Z,42.33
2018-11-27T03:54:30.671Z,46.63
2018-11-27T03:57:02.282Z,39.80
2018-11-27T03:59:32.980Z,44.43
2018-11-27T04:02:05.900Z,37.40
2018-11-27T04:04:36.974Z,39.43
2018-11-27T04:07:07.610Z,40.00
2018-11-27T04:09:38.275Z,38.90
2018-11-27T04:12:09.006Z,39.40
2018-11-27T04:14:40.042Z,38.50
2018-11-27T04:17:10.659Z,42.47
2018-11-27T04:19:41.312Z,37.40
2018-11-27T04:22:11.951Z,43.50
2018-11-27T04:24:42.669Z,44.23
2018-11-27T04:27:13.238Z,48.10
2018-11-27T04:29:43.898Z,41.60
2018-11-27T04:32:14.543Z,42.47
2018-11-27T04:34:45.159Z,42.50
2018-11-27T04:37:16.079Z,39.37
2018-11-27T04:39:46.698Z,41.73
2018-11-27T04:42:18.059Z,36.50
2018-11-27T04:44:48.760Z,45.50
2018-11-27T04:47:19.355Z,42.73
2018-11-27T04:49:50.003Z,38.03
2018-11-27T04:52:20.609Z,40.57
2018-11-27T04:54:51.299Z,42.47
2018-11-27T04:57:22.307Z,39.57
2018-11-27T04:59:52.971Z,35.50
2018-11-27T05:02:23.592Z,41.17
2018-11-27T05:04:55.167Z,33.83
2018-11-27T05:07:25.847Z,46.17
2018-11-27T05:09:56.475Z,44.80
2018-11-27T05:12:27.194Z,43.97
2018-11-27T05:14:57.886Z,46.93
2018-11-27T05:17:28.772Z,45.20
2018-11-27T05:19:59.386Z,42.37
2018-11-27T05:22:30.268Z,44.10
2018-11-27T05:25:00.968Z,47.27
2018-11-27T05:27:33.314Z,50.47
2018-11-27T05:30:16.313Z,49.43
2018-11-27T05:32:47.011Z,48.90
2018-11-27T05:35:19.728Z,45.03
2018-11-27T05:37:51.382Z,47.30
2018-11-27T05:40:24.720Z,40.17
2018-11-27T05:42:57.431Z,49.90
2018-11-27T05:45:28.344Z,41.73
2018-11-27T05:47:59.392Z,38.30
2018-11-27T05:50:30.217Z,38.90
2018-11-27T05:53:00.868Z,43.93
2018-11-27T05:55:33.539Z,46.00
2018-11-27T05:58:05.178Z,51.80
2018-11-27T06:00:36.436Z,41.40
2018-11-27T06:03:09.919Z,40.50
2018-11-27T06:05:40.762Z,39.07
2018-11-27T06:08:11.508Z,40.80
2018-11-27T06:10:42.136Z,43.73
2018-11-27T06:13:12.822Z,40.10
2018-11-27T06:15:43.456Z,45.47
2018-11-27T06:18:14.135Z,43.27
2018-11-27T06:20:44.821Z,53.07
2018-11-27T06:23:15.495Z,36.60
2018-11-27T06:25:46.151Z,38.37
2018-11-27T06:28:16.860Z,36.33
2018-11-27T06:30:47.538Z,39.27
2018-11-27T06:33:18.198Z,39.77
2018-11-27T06:35:48.995Z,34.43
2018-11-27T06:38:19.634Z,37.13
2018-11-27T06:40:50.275Z,32.93
2018-11-27T06:43:21.311Z,36.57
2018-11-27T06:45:51.952Z,35.63
2018-11-27T06:48:22.604Z,36.23
2018-11-27T06:50:53.300Z,32.53
2018-11-27T06:53:24.207Z,34.13
2018-11-27T06:55:54.929Z,37.57
2018-11-27T06:58:25.538Z,36.80
2018-11-27T07:00:56.282Z,33.23
2018-11-27T07:03:26.915Z,37.47
2018-11-27T07:06:00.440Z,31.77
2018-11-27T07:08:35.562Z,32.10
2018-11-27T07:11:09.238Z,34.30
2018-11-27T07:13:39.883Z,35.73
2018-11-27T07:16:10.576Z,34.80
2018-11-27T07:18:41.187Z,33.33
2018-11-27T07:21:11.848Z,35.70
2018-11-27T07:23:42.539Z,35.13
2018-11-27T07:26:13.206Z,34.47
2018-11-27T07:28:43.884Z,30.10
2018-11-27T07:31:15.859Z,33.47
2018-11-27T07:33:46.975Z,31.47
2018-11-27T07:36:17.635Z,31.77
2018-11-27T07:38:48.667Z,30.17
2018-11-27T07:41:19.541Z,32.73
2018-11-27T07:43:50.456Z,30.10
2018-11-27T07:46:21.082Z,32.37
2018-11-27T07:48:51.772Z,32.80
2018-11-27T07:51:22.398Z,34.77
2018-11-27T07:53:53.068Z,33.10
2018-11-27T07:56:23.666Z,30.70
2018-11-27T07:58:54.360Z,30.10
2018-11-27T08:01:25.025Z,29.80
2018-11-27T08:03:55.662Z,45.63
2018-11-27T08:06:26.831Z,65.77
2018-11-27T08:08:58.450Z,63.90
2018-11-27T08:11:33.556Z,50.23
2018-11-27T08:14:07.371Z,33.67
2018-11-27T08:16:38.026Z,73.50
2018-11-27T08:19:08.671Z,44.83
2018-11-27T08:21:39.374Z,35.90
2018-11-27T08:24:10.058Z,37.30
2018-11-27T08:26:40.795Z,26.57
2018-11-27T08:29:11.399Z,62.33
2018-11-27T08:31:42.094Z,47.43
2018-11-27T08:34:12.690Z,50.17
2018-11-27T08:36:43.855Z,45.40
2018-11-27T08:39:14.469Z,33.50
2018-11-27T08:41:45.135Z,45.67
2018-11-27T08:44:22.205Z,56.73
2018-11-27T08:46:52.911Z,49.00
2018-11-27T08:49:24.671Z,33.33
2018-11-27T08:51:55.501Z,31.03
2018-11-27T08:54:26.173Z,27.23
2018-11-27T08:56:56.798Z,30.53
2018-11-27T08:59:27.459Z,32.73
2018-11-27T09:01:58.114Z,29.83
2018-11-27T09:04:28.716Z,35.23
2018-11-27T09:06:59.370Z,31.73
2018-11-27T09:09:29.994Z,27.20
2018-11-27T09:12:00.668Z,29.27
2018-11-27T09:14:33.825Z,26.70
2018-11-27T09:17:08.179Z,24.03
2018-11-27T09:19:38.859Z,29.07
2018-11-27T09:22:12.705Z,39.63
2018-11-27T09:24:40.783Z,42.37
2018-11-27T09:27:11.395Z,44.23
2018-11-27T09:29:42.411Z,52.53
2018-11-27T09:32:13.111Z,50.03
2018-11-27T09:34:44.770Z,50.07
2018-11-27T09:37:15.489Z,54.37
2018-11-27T09:39:46.156Z,50.45
2018-11-27T09:42:16.867Z,60.47
2018-11-27T09:44:47.574Z,56.70
2018-11-27T09:47:18.253Z,64.23
2018-11-27T09:49:48.957Z,76.40
2018-11-27T09:52:19.599Z,77.73
2018-11-27T09:54:50.271Z,81.67
2018-11-27T09:57:20.936Z,74.20
2018-11-27T09:59:51.634Z,83.97
2018-11-27T10:02:22.281Z,116.00
2018-11-27T10:04:52.961Z,116.20
2018-11-27T10:07:23.767Z,120.87
2018-11-27T10:09:54.534Z,124.77
2018-11-27T10:12:25.287Z,100.22
2018-11-27T10:14:55.965Z,97.53
2018-11-27T10:17:26.635Z,79.60
2018-11-27T10:19:57.393Z,67.87
2018-11-27T10:22:28.255Z,59.97
2018-11-27T10:24:58.943Z,57.55
2018-11-27T10:27:30.017Z,41.83
2018-11-27T10:30:00.657Z,41.15
2018-11-27T10:32:33.204Z,50.15
2018-11-27T10:35:08.422Z,36.98
2018-11-27T10:37:39.100Z,27.42
2018-11-27T10:40:10.420Z,27.80
2018-11-27T10:42:41.110Z,31.27
2018-11-27T10:45:14.137Z,30.72
2018-11-27T10:47:45.431Z,38.38
2018-11-27T10:50:16.953Z,28.95
2018-11-27T10:52:48.719Z,30.48
2018-11-27T10:55:20.119Z,37.88
2018-11-27T10:57:50.875Z,26.07
2018-11-27T11:00:28.344Z,30.77
2018-11-27T11:03:05.690Z,27.70
2018-11-27T11:05:37.672Z,37.93
2018-11-27T11:08:08.364Z,40.88
2018-11-27T11:10:39.079Z,35.15
2018-11-27T11:13:09.794Z,36.60
2018-11-27T11:15:40.532Z,31.60
2018-11-27T11:18:11.234Z,31.50
2018-11-27T11:20:41.918Z,27.10
2018-11-27T11:23:12.570Z,26.65
2018-11-27T11:25:43.305Z,28.50
2018-11-27T11:28:13.987Z,28.70
2018-11-27T11:30:44.793Z,38.15
2018-11-27T11:33:15.501Z,34.35
2018-11-27T11:35:46.221Z,33.28
2018-11-27T11:38:16.892Z,35.95
2018-11-27T11:40:47.619Z,35.48
2018-11-27T11:43:18.360Z,37.65
2018-11-27T11:45:49.041Z,40.40
2018-11-27T11:48:19.806Z,48.48
2018-11-27T11:50:50.562Z,48.30
2018-11-27T11:53:21.332Z,60.48
2018-11-27T11:55:52.717Z,48.45
2018-11-27T11:58:23.449Z,59.48
2018-11-27T12:00:55.471Z,53.35
2018-11-27T12:03:26.132Z,49.05
2018-11-27T12:05:56.857Z,53.52
2018-11-27T12:08:28.261Z,44.42
2018-11-27T12:10:59.024Z,35.05
2018-11-27T12:13:29.789Z,37.28
2018-11-27T12:16:00.482Z,37.98
2018-11-27T12:18:36.548Z,38.90
2018-11-27T12:21:07.819Z,37.78
2018-11-27T12:23:39.099Z,38.48
2018-11-27T12:26:09.855Z,37.48
2018-11-27T12:28:41.049Z,38.00
2018-11-27T12:31:11.765Z,45.67
2018-11-27T12:33:42.429Z,41.63
2018-11-27T12:36:13.115Z,36.60
2018-11-27T12:38:43.841Z,45.23
2018-11-27T12:41:14.601Z,41.28
2018-11-27T12:43:45.309Z,42.10
2018-11-27T12:46:16.037Z,38.60
2018-11-27T12:48:46.689Z,41.35
2018-11-27T12:51:17.866Z,43.98
2018-11-27T12:53:48.197Z,55.00
2018-11-27T12:56:18.933Z,46.95
2018-11-27T12:58:49.610Z,47.35
2018-11-27T13:01:20.761Z,55.03
2018-11-27T13:03:51.587Z,56.85
2018-11-27T13:06:27.699Z,60.85
2018-11-27T13:08:53.177Z,57.73
2018-11-27T13:11:23.912Z,67.40
2018-11-27T13:13:54.670Z,63.73
2018-11-27T13:16:25.465Z,69.37
2018-11-27T13:18:56.221Z,71.30
2018-11-27T13:21:27.053Z,66.65
2018-11-27T13:23:57.761Z,59.60
2018-11-27T13:26:28.461Z,60.40
2018-11-27T13:28:59.129Z,58.80
2018-11-27T13:31:30.886Z,55.90
2018-11-27T13:34:35.227Z,56.30
2018-11-27T13:37:08.412Z,50.03
2018-11-27T13:39:40.606Z,59.80
2018-11-27T13:42:11.305Z,50.80
2018-11-27T13:44:42.149Z,56.35
2018-11-27T13:47:13.429Z,51.98
2018-11-27T13:49:44.116Z,49.48
2018-11-27T13:52:14.998Z,48.75
2018-11-27T13:54:45.690Z,39.83
2018-11-27T13:57:17.354Z,47.40
2018-11-27T13:59:48.230Z,41.05
2018-11-27T14:02:19.029Z,49.35
2018-11-27T14:04:49.980Z,48.17
2018-11-27T14:07:20.747Z,47.67
2018-11-27T14:09:51.967Z,48.85
2018-11-27T14:12:22.698Z,54.95
2018-11-27T14:14:53.405Z,53.10
2018-11-27T14:17:24.043Z,60.40
2018-11-27T14:19:54.777Z,57.23
2018-11-27T14:22:25.454Z,54.80
2018-11-27T14:24:56.165Z,56.77
2018-11-27T14:27:27.004Z,54.67
2018-11-27T14:29:57.726Z,51.02
2018-11-27T14:32:28.428Z,51.73
2018-11-27T14:35:00.037Z,61.10
2018-11-27T14:37:33.098Z,57.23
2018-11-27T14:40:09.845Z,56.30
2018-11-27T14:42:40.588Z,53.63
2018-11-27T14:45:17.301Z,55.65
2018-11-27T14:47:50.986Z,60.35
2018-11-27T14:50:23.222Z,59.83
2018-11-27T14:52:54.985Z,27.85
2018-11-27T14:55:28.984Z,23.80
2018-11-27T14:58:00.682Z,18.50
2018-11-27T15:00:32.869Z,22.00
2018-11-27T15:03:07.251Z,21.55
2018-11-27T15:05:39.677Z,19.50
2018-11-27T15:08:11.869Z,16.52
2018-11-27T15:10:42.595Z,17.12
2018-11-27T15:13:14.129Z,15.50
2018-11-27T15:15:44.913Z,34.70
2018-11-27T15:18:15.586Z,77.30
2018-11-27T15:20:46.314Z,14.03
2018-11-27T15:23:17.286Z,15.58
2018-11-27T15:25:47.990Z,13.55
2018-11-27T15:28:18.682Z,15.98
2018-11-27T15:30:49.390Z,25.35
2018-11-27T15:33:20.397Z,23.10
2018-11-27T15:35:51.130Z,21.70
2018-11-27T15:38:21.792Z,19.12
2018-11-27T15:40:52.578Z,15.72
2018-11-27T15:43:23.267Z,16.40
2018-11-27T15:45:53.975Z,23.25
2018-11-27T15:48:24.755Z,54.80
2018-11-27T15:50:55.519Z,21.80
2018-11-27T15:53:26.292Z,15.78
2018-11-27T15:55:57.002Z,22.45
2018-11-27T15:58:27.769Z,23.15
2018-11-27T16:00:58.567Z,19.30
2018-11-27T16:03:29.410Z,18.17
2018-11-27T16:06:00.129Z,21.60
2018-11-27T16:08:34.546Z,16.60
2018-11-27T16:11:08.849Z,23.15
2018-11-27T16:13:39.584Z,21.17
2018-11-27T16:16:10.370Z,25.23
2018-11-27T16:18:44.070Z,64.40
2018-11-27T16:21:15.114Z,37.38
2018-11-27T16:23:46.021Z,90.45
2018-11-27T16:26:17.110Z,52.58
2018-11-27T16:28:47.807Z,47.95
2018-11-27T16:31:19.081Z,55.28
2018-11-27T16:33:49.814Z,37.88
2018-11-27T16:36:20.464Z,20.50
2018-11-27T16:38:51.209Z,28.27
2018-11-27T16:41:21.974Z,30.20
2018-11-27T16:43:52.741Z,27.98
2018-11-27T16:46:23.499Z,49.98
2018-11-27T16:48:54.821Z,38.25
2018-11-27T16:51:25.536Z,36.42
2018-11-27T16:53:56.234Z,36.33
2018-11-27T16:56:27.023Z,41.92
2018-11-27T16:58:57.717Z,40.30
2018-11-27T17:01:28.443Z,42.40
2018-11-27T17:03:59.242Z,28.77
2018-11-27T17:06:30.195Z,52.70
2018-11-27T17:09:00.985Z,47.23
2018-11-27T17:11:31.694Z,49.20
2018-11-27T17:14:05.573Z,53.17
2018-11-27T17:16:36.517Z,40.85
2018-11-27T17:19:08.438Z,33.92
2018-11-27T17:21:39.113Z,37.95
2018-11-27T17:24:09.851Z,43.52
2018-11-27T17:26:40.538Z,31.85
2018-11-27T17:29:11.262Z,33.92
2018-11-27T17:31:41.997Z,35.68
2018-11-27T17:34:14.827Z,31.57
2018-11-27T17:36:46.731Z,34.05
2018-11-27T17:39:17.401Z,38.35
2018-11-27T17:41:48.162Z,44.80
2018-11-27T17:44:18.890Z,51.63
2018-11-27T17:46:49.577Z,47.62
2018-11-27T17:49:20.803Z,68.70
2018-11-27T17:51:52.651Z,41.65
2018-11-27T17:54:23.618Z,40.73
2018-11-27T17:56:54.324Z,36.85
2018-11-27T17:59:25.006Z,44.40
2018-11-27T18:01:55.743Z,42.78
2018-11-27T18:04:26.420Z,48.30
2018-11-27T18:06:57.098Z,52.88
2018-11-27T18:09:27.787Z,49.77
2018-11-27T18:11:58.950Z,53.60
2018-11-27T18:14:29.662Z,53.20
2018-11-27T18:17:00.338Z,49.90
2018-11-27T18:19:31.191Z,53.38
2018-11-27T18:22:06.798Z,53.75
2018-11-27T18:24:38.520Z,62.27
2018-11-27T18:27:08.278Z,66.77
2018-11-27T18:29:39.145Z,69.85
2018-11-27T18:32:10.231Z,68.80
2018-11-27T18:34:40.917Z,83.78
2018-11-27T18:37:11.597Z,77.65
2018-11-27T18:39:42.266Z,78.40
2018-11-27T18:42:12.899Z,72.45
2018-11-27T18:44:43.574Z,61.02
2018-11-27T18:47:14.210Z,67.75
2018-11-27T18:49:44.831Z,63.42
2018-11-27T18:52:15.567Z,79.22
2018-11-27T18:54:46.234Z,72.10
2018-11-27T18:57:16.947Z,69.17
2018-11-27T18:59:47.627Z,68.35
2018-11-27T19:02:19.271Z,80.57
2018-11-27T19:04:49.981Z,81.57
2018-11-27T19:07:20.730Z,87.42
2018-11-27T19:09:51.431Z,86.60
2018-11-27T19:12:22.091Z,87.90
2018-11-27T19:14:52.932Z,115.45
2018-11-27T19:17:23.640Z,117.72
2018-11-27T19:19:54.365Z,98.15
2018-11-27T19:22:25.596Z,106.47
2018-11-27T19:24:56.279Z,87.67
2018-11-27T19:27:27.025Z,83.20
2018-11-27T19:29:57.899Z,75.37
2018-11-27T19:32:28.519Z,83.52
2018-11-27T19:34:59.225Z,79.15
2018-11-27T19:37:30.619Z,90.77
2018-11-27T19:40:06.267Z,91.57
2018-11-27T19:42:36.898Z,93.37
2018-11-27T19:45:11.079Z,96.47
2018-11-27T19:47:41.810Z,95.10
2018-11-27T19:50:13.956Z,96.85
2018-11-27T19:52:45.675Z,99.47
2018-11-27T19:55:17.508Z,96.72
2018-11-27T19:57:48.215Z,101.18
2018-11-27T20:00:23.880Z,102.45
2018-11-27T20:02:54.817Z,94.83
2018-11-27T20:05:28.915Z,96.25
2018-11-27T20:08:01.036Z,102.07
2018-11-27T20:10:32.902Z,105.65
2018-11-27T20:13:06.347Z,105.15
2018-11-27T20:15:37.147Z,97.47
2018-11-27T20:18:08.453Z,105.65
2018-11-27T20:20:39.230Z,109.45
2018-11-27T20:23:09.946Z,109.67
2018-11-27T20:25:40.874Z,128.78
2018-11-27T20:28:12.919Z,120.80
2018-11-27T20:30:44.667Z,92.65
2018-11-27T20:33:15.398Z,94.37
2018-11-27T20:35:46.042Z,108.70
2018-11-27T20:38:16.801Z,159.57
2018-11-27T20:40:48.452Z,176.63
2018-11-27T20:43:18.504Z,160.85
2018-11-27T20:45:50.042Z,170.77
2018-11-27T20:48:21.163Z,165.88
2018-11-27T20:50:53.099Z,160.52
2018-11-27T20:53:23.797Z,150.75
2018-11-27T20:55:54.504Z,154.35
2018-11-27T20:58:25.712Z,156.65
2018-11-27T21:00:56.868Z,184.87
2018-11-27T21:03:27.647Z,179.32
2018-11-27T21:05:58.350Z,183.97
2018-11-27T21:08:33.687Z,187.68
2018-11-27T21:11:09.334Z,188.87
2018-11-27T21:13:40.061Z,167.55
2018-11-27T21:16:13.179Z,154.60
2018-11-27T21:18:44.003Z,145.67
2018-11-27T21:21:14.726Z,139.97
2018-11-27T21:23:45.457Z,139.03
2018-11-27T21:26:16.609Z,133.03
2018-11-27T21:28:47.299Z,128.70
2018-11-27T21:31:17.976Z,126.17
2018-11-27T21:33:51.255Z,118.25
2018-11-27T21:36:24.124Z,125.72
2018-11-27T21:38:54.898Z,119.60
2018-11-27T21:41:29.062Z,121.77
2018-11-27T21:44:00.815Z,132.60
2018-11-27T21:46:36.317Z,135.50
2018-11-27T21:49:08.730Z,133.60
2018-11-27T21:51:39.600Z,119.97
2018-11-27T21:54:11.061Z,120.33
2018-11-27T21:56:41.667Z,120.70
2018-11-27T21:59:13.347Z,131.63
2018-11-27T22:01:44.373Z,139.73
2018-11-27T22:04:15.080Z,130.55
2018-11-27T22:06:46.046Z,136.70
2018-11-27T22:09:23.255Z,130.65
2018-11-27T22:11:53.879Z,124.25
2018-11-27T22:14:24.568Z,146.13
2018-11-27T22:17:04.323Z,138.37
2018-11-27T22:19:35.055Z,141.28
2018-11-27T22:22:06.217Z,137.95
2018-11-27T22:24:38.142Z,131.27
2018-11-27T22:27:08.765Z,122.33
2018-11-27T22:29:40.407Z,125.12
2018-11-27T22:32:11.065Z,142.22
2018-11-27T22:34:42.787Z,127.13
2018-11-27T22:37:13.847Z,124.75
2018-11-27T22:39:44.528Z,102.37
2018-11-27T22:42:15.171Z,108.52
2018-11-27T22:44:45.830Z,102.15
2018-11-27T22:47:16.555Z,114.62
2018-11-27T22:49:47.208Z,117.17
2018-11-27T22:52:18.486Z,112.83
2018-11-27T22:54:49.287Z,108.90
2018-11-27T22:57:20.039Z,114.13
2018-11-27T22:59:51.245Z,115.28
2018-11-27T23:02:22.099Z,122.17
2018-11-27T23:04:52.866Z,118.30
2018-11-27T23:07:28.615Z,114.60
2018-11-27T23:09:59.261Z,101.80
2018-11-27T23:12:29.951Z,104.70
2018-11-27T23:15:07.936Z,117.33
2018-11-27T23:17:38.802Z,113.43
2018-11-27T23:20:18.043Z,113.27
2018-11-27T23:22:48.763Z,115.33
2018-11-27T23:25:20.172Z,126.73
2018-11-27T23:27:51.043Z,106.23
2018-11-27T23:30:23.631Z,95.07
2018-11-27T23:32:54.343Z,98.33
2018-11-27T23:35:24.998Z,101.47
2018-11-27T23:37:55.690Z,126.97
2018-11-27T23:40:26.538Z,117.67
2018-11-27T23:42:57.476Z,110.27
2018-11-27T23:45:28.427Z,118.53
2018-11-27T23:47:59.091Z,108.25
2018-11-27T23:50:29.780Z,102.53
2018-11-27T23:53:00.484Z,102.58
2018-11-27T23:55:31.182Z,106.97
2018-11-27T23:58:01.879Z,101.67
